Terminal Aerodrome Forecast
Issued by NWS

Home | Current Version | Previous Version | Text Only | Print | Product List | Glossary On
Versions: 1 2 3 4 5 6 7 8 9 10 11 12 13 14 15 16 17 18 19 20 21 22 23
000
FTUS44 KOUN 062320
TAFPNC
TAF
KPNC 062320Z 0700/0724 VRB10G25KT 4SM TSRA BR FEW015 OVC050CB
     FM070300 03010KT 6SM -SHRA BR OVC015=

USA.gov is the U.S. government's official web portal to all federal, state and local government web resources and services.